Station Historical Data
Daily Summary for January 12, 2017 Units:  English    Metric   Both
« Previous Day
Next Day »
Daily Weekly Monthly Yearly Custom
  High: Low: Average:
Temperature: 57.3 °F 33.1 °F 44.8 °F
Dew Point: 52.5 °F 29.1 °F 41.9 °F
Humidity: 95% 82% 90%
Wind Speed: 18.0mph 0.0mph 6.3mph
Wind Gust: 27.0mph - -
Wind- - SW
Pressure: 30.26 in 29.70 in -
Precipitation: 0.00 in    
Historical Graphs
 
 
Tabular Data for January 12, 2017
Time Temperature Dew Point Pressure Wind Wind Speed Wind Gust Humidity Rainfall Rate (Hourly)
00:04 49.9 °F 45.6 °F 29.77 in South 8.0 mph 16.0 mph 85% 0.03 in
00:09 50.1 °F 45.5 °F 29.77 in SSW 7.0 mph 13.0 mph 84% 0.03 in
00:14 50.2 °F 45.9 °F 29.77 in SSW 7.0 mph 15.0 mph 85% 0.03 in
00:19 50.2 °F 45.9 °F 29.76 in South 8.0 mph 15.0 mph 85% 0.03 in
00:24 50.3 °F 46.0 °F 29.76 in South 8.0 mph 19.0 mph 85% 0.03 in
00:29 50.4 °F 46.1 °F 29.76 in South 9.0 mph 19.0 mph 85% 0.03 in
00:34 50.6 °F 46.3 °F 29.75 in SSW 7.0 mph 19.0 mph 85% 0.02 in
00:39 51.0 °F 46.3 °F 29.74 in SW 10.0 mph 19.0 mph 84% 0.01 in
00:44 51.3 °F 46.6 °F 29.74 in South 9.0 mph 13.0 mph 84% 0.00 in
00:49 51.5 °F 46.8 °F 29.74 in South 8.0 mph 18.0 mph 84% 0.00 in
00:54 52.0 °F 47.3 °F 29.73 in South 9.0 mph 18.0 mph 84% 0.00 in
00:59 52.2 °F 47.5 °F 29.73 in SW 8.0 mph 17.0 mph 84% 0.00 in
01:04 52.5 °F 47.8 °F 29.73 in SSE 11.0 mph 17.0 mph 84% 0.00 in
01:09 52.7 °F 47.7 °F 29.72 in South 6.0 mph 16.0 mph 83% 0.00 in
01:14 53.0 °F 48.3 °F 29.72 in SSW 7.0 mph 22.0 mph 84% 0.00 in
01:19 53.2 °F 48.2 °F 29.72 in SSE 5.0 mph 21.0 mph 83% 0.00 in
01:24 53.2 °F 48.5 °F 29.72 in SSW 9.0 mph 21.0 mph 84% 0.00 in
01:29 53.4 °F 48.7 °F 29.72 in SSW 9.0 mph 22.0 mph 84% 0.01 in
01:34 53.2 °F 48.8 °F 29.72 in SSW 8.0 mph 22.0 mph 85% 0.01 in
01:39 53.3 °F 49.2 °F 29.72 in SSW 9.0 mph 19.0 mph 86% 0.01 in
01:44 53.5 °F 49.1 °F 29.71 in SSW 10.0 mph 24.0 mph 85% 0.02 in
01:49 53.9 °F 49.5 °F 29.71 in South 10.0 mph 20.0 mph 85% 0.02 in
01:54 53.9 °F 49.5 °F 29.71 in South 8.0 mph 24.0 mph 85% 0.02 in
01:59 53.9 °F 49.8 °F 29.71 in SSW 10.0 mph 24.0 mph 86% 0.02 in
02:04 53.9 °F 49.8 °F 29.71 in SSW 11.0 mph 22.0 mph 86% 0.02 in
02:09 53.9 °F 49.8 °F 29.71 in SSW 10.0 mph 22.0 mph 86% 0.02 in
02:14 54.0 °F 49.9 °F 29.71 in South 7.0 mph 17.0 mph 86% 0.02 in
02:19 54.1 °F 49.7 °F 29.70 in SSW 10.0 mph 19.0 mph 85% 0.02 in
02:24 54.1 °F 49.7 °F 29.71 in South 11.0 mph 17.0 mph 85% 0.02 in
02:29 54.3 °F 49.9 °F 29.70 in SSW 7.0 mph 19.0 mph 85% 0.01 in
02:34 54.5 °F 49.8 °F 29.70 in SSW 10.0 mph 22.0 mph 84% 0.01 in
02:39 54.5 °F 49.8 °F 29.71 in SSW 9.0 mph 22.0 mph 84% 0.01 in
02:44 54.6 °F 49.9 °F 29.71 in SSW 8.0 mph 18.0 mph 84% 0.00 in
02:49 54.8 °F 50.1 °F 29.70 in SSW 8.0 mph 18.0 mph 84% 0.00 in
02:54 55.1 °F 50.4 °F 29.70 in South 7.0 mph 16.0 mph 84% 0.00 in
02:59 55.3 °F 50.2 °F 29.70 in SSW 9.0 mph 17.0 mph 83% 0.00 in
03:04 55.6 °F 50.5 °F 29.70 in SSW 5.0 mph 17.0 mph 83% 0.00 in
03:09 56.0 °F 50.9 °F 29.70 in SSW 10.0 mph 24.0 mph 83% 0.00 in
03:14 56.2 °F 51.1 °F 29.70 in SSW 10.0 mph 24.0 mph 83% 0.00 in
03:19 56.2 °F 51.1 °F 29.70 in SSW 11.0 mph 23.0 mph 83% 0.00 in
03:24 56.1 °F 51.0 °F 29.70 in SW 4.0 mph 19.0 mph 83% 0.00 in
03:29 56.1 °F 51.0 °F 29.71 in South 10.0 mph 17.0 mph 83% 0.00 in
03:34 56.3 °F 51.2 °F 29.70 in SW 10.0 mph 16.0 mph 83% 0.00 in
03:39 56.4 °F 51.3 °F 29.70 in SSW 9.0 mph 19.0 mph 83% 0.00 in
03:44 56.6 °F 51.5 °F 29.71 in SSW 9.0 mph 19.0 mph 83% 0.00 in
03:49 56.7 °F 51.3 °F 29.71 in SSW 9.0 mph 18.0 mph 82% 0.00 in
03:54 56.8 °F 51.4 °F 29.71 in SW 5.0 mph 19.0 mph 82% 0.00 in
03:59 56.8 °F 51.4 °F 29.71 in SW 12.0 mph 18.0 mph 82% 0.00 in
04:04 56.8 °F 51.4 °F 29.71 in SW 10.0 mph 17.0 mph 82% 0.00 in
04:09 56.8 °F 51.4 °F 29.71 in SW 8.0 mph 17.0 mph 82% 0.00 in
04:14 56.8 °F 51.4 °F 29.71 in SW 8.0 mph 14.0 mph 82% 0.00 in
04:19 56.8 °F 51.4 °F 29.70 in SSW 8.0 mph 18.0 mph 82% 0.00 in
04:24 56.9 °F 51.5 °F 29.70 in SW 9.0 mph 15.0 mph 82% 0.00 in
04:29 57.1 °F 51.7 °F 29.70 in WSW 14.0 mph 21.0 mph 82% 0.00 in
04:34 57.2 °F 52.1 °F 29.70 in WSW 14.0 mph 19.0 mph 83% 0.01 in
04:39 57.3 °F 52.5 °F 29.70 in SW 16.0 mph 27.0 mph 84% 0.02 in
04:44 57.1 °F 52.3 °F 29.70 in South 10.0 mph 20.0 mph 84% 0.03 in
04:49 56.9 °F 52.4 °F 29.70 in SSW 10.0 mph 20.0 mph 85% 0.03 in
04:54 56.8 °F 52.3 °F 29.71 in SSW 10.0 mph 21.0 mph 85% 0.03 in
04:59 56.8 °F 52.3 °F 29.72 in SW 11.0 mph 22.0 mph 85% 0.03 in
05:04 56.6 °F 52.5 °F 29.72 in SW 10.0 mph 25.0 mph 86% 0.03 in
05:09 56.5 °F 52.0 °F 29.73 in SW 10.0 mph 25.0 mph 85% 0.03 in
05:14 56.7 °F 51.9 °F 29.73 in SW 11.0 mph 25.0 mph 84% 0.03 in
05:19 56.8 °F 52.0 °F 29.72 in WSW 9.0 mph 22.0 mph 84% 0.03 in
05:24 56.8 °F 52.0 °F 29.73 in WSW 13.0 mph 21.0 mph 84% 0.04 in
05:29 56.7 °F 51.9 °F 29.73 in SW 11.0 mph 23.0 mph 84% 0.04 in
05:34 56.4 °F 51.6 °F 29.73 in SSE 7.0 mph 21.0 mph 84% 0.03 in
05:39 56.1 °F 51.7 °F 29.74 in South 7.0 mph 22.0 mph 85% 0.02 in
05:44 56.0 °F 51.6 °F 29.73 in SW 7.0 mph 14.0 mph 85% 0.01 in
05:49 56.2 °F 52.1 °F 29.74 in SW 10.0 mph 23.0 mph 86% 0.01 in
05:54 56.2 °F 51.4 °F 29.74 in SW 11.0 mph 16.0 mph 84% 0.01 in
05:59 55.7 °F 51.3 °F 29.74 in SW 10.0 mph 18.0 mph 85% 0.01 in
06:04 55.4 °F 51.0 °F 29.74 in SW 9.0 mph 18.0 mph 85% 0.01 in
06:09 55.0 °F 50.9 °F 29.74 in SW 8.0 mph 17.0 mph 86% 0.01 in
06:14 54.7 °F 50.9 °F 29.75 in WSW 9.0 mph 20.0 mph 87% 0.01 in
06:19 54.7 °F 50.9 °F 29.75 in SW 10.0 mph 20.0 mph 87% 0.01 in
06:24 54.5 °F 50.7 °F 29.75 in WSW 8.0 mph 18.0 mph 87% 0.00 in
06:29 54.1 °F 50.3 °F 29.75 in SSW 9.0 mph 16.0 mph 87% 0.00 in
06:34 53.4 °F 49.6 °F 29.75 in SW 9.0 mph 19.0 mph 87% 0.00 in
06:39 53.2 °F 49.7 °F 29.75 in SW 5.0 mph 17.0 mph 88% 0.00 in
06:44 53.3 °F 49.8 °F 29.76 in SSW 12.0 mph 15.0 mph 88% 0.00 in
06:49 53.2 °F 49.7 °F 29.76 in WSW 9.0 mph 16.0 mph 88% 0.00 in
06:54 53.2 °F 49.4 °F 29.77 in WSW 5.0 mph 17.0 mph 87% 0.00 in
06:59 53.3 °F 49.5 °F 29.77 in SW 4.0 mph 16.0 mph 87% 0.00 in
07:04 53.5 °F 49.7 °F 29.77 in SW 8.0 mph 16.0 mph 87% 0.00 in
07:09 53.6 °F 49.5 °F 29.76 in SW 9.0 mph 19.0 mph 86% 0.00 in
07:14 53.5 °F 49.4 °F 29.77 in SW 10.0 mph 19.0 mph 86% 0.00 in
07:19 53.2 °F 49.1 °F 29.77 in SW 10.0 mph 18.0 mph 86% 0.00 in
07:24 52.8 °F 48.7 °F 29.77 in South 5.0 mph 20.0 mph 86% 0.00 in
07:29 52.8 °F 49.0 °F 29.77 in SSE 5.0 mph 14.0 mph 87% 0.00 in
07:34 52.8 °F 49.0 °F 29.77 in WSW 4.0 mph 15.0 mph 87% 0.00 in
07:39 52.8 °F 49.3 °F 29.78 in SSW 7.0 mph 19.0 mph 88% 0.00 in
07:44 53.2 °F 50.0 °F 29.78 in NW 18.0 mph 21.0 mph 89% 0.00 in
07:49 53.2 °F 50.0 °F 29.78 in WNW 13.0 mph 19.0 mph 89% 0.00 in
07:54 53.2 °F 50.0 °F 29.78 in West 7.0 mph 19.0 mph 89% 0.00 in
07:59 53.2 °F 50.3 °F 29.79 in WSW 9.0 mph 17.0 mph 90% 0.00 in
08:04 53.0 °F 49.8 °F 29.79 in WSW 10.0 mph 19.0 mph 89% 0.00 in
08:09 51.7 °F 48.3 °F 29.80 in WSW 10.0 mph 19.0 mph 88% 0.00 in
08:14 50.7 °F 47.9 °F 29.79 in West 9.0 mph 18.0 mph 90% 0.00 in
08:19 50.6 °F 48.1 °F 29.80 in WSW 9.0 mph 17.0 mph 91% 0.00 in
08:24 50.7 °F 48.5 °F 29.80 in WSW 8.0 mph 18.0 mph 92% 0.00 in
08:29 50.8 °F 48.6 °F 29.81 in WSW 7.0 mph 18.0 mph 92% 0.00 in
08:34 50.7 °F 48.5 °F 29.81 in SW 9.0 mph 12.0 mph 92% 0.00 in
08:39 50.2 °F 48.0 °F 29.82 in West 11.0 mph 14.0 mph 92% 0.00 in
08:44 49.6 °F 47.4 °F 29.81 in SW 9.0 mph 12.0 mph 92% 0.00 in
08:49 49.1 °F 46.9 °F 29.82 in WSW 5.0 mph 11.0 mph 92% 0.00 in
08:54 48.7 °F 46.5 °F 29.83 in WSW 7.0 mph 10.0 mph 92% 0.00 in
08:59 48.3 °F 46.4 °F 29.83 in West 4.0 mph 11.0 mph 93% 0.00 in
09:04 47.9 °F 46.0 °F 29.82 in West 7.0 mph 12.0 mph 93% 0.00 in
09:09 47.8 °F 45.9 °F 29.82 in WSW 6.0 mph 12.0 mph 93% 0.00 in
09:14 47.5 °F 45.6 °F 29.83 in WSW 5.0 mph 9.0 mph 93% 0.00 in
09:19 47.4 °F 45.5 °F 29.82 in SW 4.0 mph 8.0 mph 93% 0.00 in
09:24 47.3 °F 45.4 °F 29.83 in SW 4.0 mph 6.0 mph 93% 0.00 in
09:29 47.2 °F 45.6 °F 29.83 in SW 4.0 mph 6.0 mph 94% 0.00 in
09:34 46.7 °F 44.8 °F 29.83 in SSW 3.0 mph 7.0 mph 93% 0.00 in
09:39 45.8 °F 43.9 °F 29.83 in SSW 3.0 mph 7.0 mph 93% 0.00 in
09:44 45.3 °F 43.4 °F 29.84 in South 3.0 mph 9.0 mph 93% 0.00 in
09:49 44.5 °F 42.6 °F 29.85 in SW 4.0 mph 8.0 mph 93% 0.00 in
09:54 43.4 °F 41.5 °F 29.84 in South 3.0 mph 7.0 mph 93% 0.00 in
09:59 42.9 °F 41.0 °F 29.84 in SSE 3.0 mph 6.0 mph 93% 0.00 in
10:04 42.5 °F 40.9 °F 29.84 in SSW 4.0 mph 7.0 mph 94% 0.00 in
10:09 42.2 °F 40.6 °F 29.84 in South 1.0 mph 7.0 mph 94% 0.00 in
10:14 42.2 °F 40.6 °F 29.85 in SSW 4.0 mph 8.0 mph 94% 0.00 in
10:19 42.1 °F 40.5 °F 29.85 in SSW 4.0 mph 9.0 mph 94% 0.00 in
10:24 41.8 °F 40.2 °F 29.85 in SSW 5.0 mph 9.0 mph 94% 0.00 in
10:29 41.6 °F 40.0 °F 29.85 in SSW 4.0 mph 9.0 mph 94% 0.00 in
10:34 41.6 °F 40.0 °F 29.85 in SSW 4.0 mph 8.0 mph 94% 0.00 in
10:39 41.7 °F 40.4 °F 29.85 in SSW 4.0 mph 8.0 mph 95% 0.00 in
10:44 41.8 °F 40.5 °F 29.85 in SW 5.0 mph 7.0 mph 95% 0.00 in
10:49 41.9 °F 40.6 °F 29.85 in SSW 3.0 mph 7.0 mph 95% 0.00 in
10:54 42.2 °F 40.9 °F 29.84 in South 3.0 mph 5.0 mph 95% 0.00 in
10:59 42.4 °F 41.1 °F 29.85 in WSW 3.0 mph 7.0 mph 95% 0.00 in
11:04 42.7 °F 41.4 °F 29.85 in West 3.0 mph 5.0 mph 95% 0.00 in
11:09 42.9 °F 41.6 °F 29.84 in West 3.0 mph 5.0 mph 95% 0.00 in
11:14 43.1 °F 41.8 °F 29.84 in West 2.0 mph 5.0 mph 95% 0.00 in
11:19 43.2 °F 41.9 °F 29.84 in WSW 3.0 mph 6.0 mph 95% 0.00 in
11:24 43.3 °F 42.0 °F 29.84 in WSW 4.0 mph 7.0 mph 95% 0.00 in
11:29 43.4 °F 42.1 °F 29.83 in West 4.0 mph 7.0 mph 95% 0.00 in
11:34 43.5 °F 42.2 °F 29.83 in West 3.0 mph 7.0 mph 95% 0.00 in
11:39 43.6 °F 42.3 °F 29.82 in West 3.0 mph 6.0 mph 95% 0.00 in
11:44 43.6 °F 42.3 °F 29.82 in West 4.0 mph 8.0 mph 95% 0.00 in
11:49 43.5 °F 42.2 °F 29.83 in WSW 5.0 mph 9.0 mph 95% 0.00 in
11:54 43.4 °F 42.1 °F 29.83 in West 3.0 mph 8.0 mph 95% 0.00 in
11:59 43.4 °F 42.1 °F 29.83 in WNW 5.0 mph 8.0 mph 95% 0.00 in
12:04 43.4 °F 42.1 °F 29.83 in SW 6.0 mph 7.0 mph 95% 0.01 in
12:09 43.3 °F 42.0 °F 29.83 in WSW 5.0 mph 9.0 mph 95% 0.03 in
12:14 43.1 °F 41.8 °F 29.82 in WSW 8.0 mph 8.0 mph 95% 0.05 in
12:19 43.1 °F 41.8 °F 29.82 in SW 4.0 mph 8.0 mph 95% 0.08 in
12:24 43.1 °F 41.8 °F 29.82 in WSW 4.0 mph 8.0 mph 95% 0.10 in
12:29 43.0 °F 41.7 °F 29.83 in WSW 4.0 mph 8.0 mph 95% 0.13 in
12:34 42.9 °F 41.6 °F 29.83 in West 4.0 mph 9.0 mph 95% 0.16 in
12:39 42.7 °F 41.4 °F 29.83 in West 4.0 mph 9.0 mph 95% 0.18 in
12:44 42.6 °F 41.3 °F 29.83 in West 4.0 mph 9.0 mph 95% 0.21 in
12:49 42.7 °F 41.4 °F 29.84 in WNW 4.0 mph 8.0 mph 95% 0.23 in
12:54 42.5 °F 41.2 °F 29.84 in WNW 9.0 mph 11.0 mph 95% 0.24 in
12:59 42.0 °F 40.7 °F 29.84 in NW 3.0 mph 11.0 mph 95% 0.24 in
13:04 41.6 °F 40.3 °F 29.84 in NNW 5.0 mph 10.0 mph 95% 0.23 in
13:09 41.1 °F 39.8 °F 29.83 in North 3.0 mph 7.0 mph 95% 0.21 in
13:14 40.9 °F 39.6 °F 29.83 in NNE 4.0 mph 9.0 mph 95% 0.19 in
13:19 40.6 °F 39.3 °F 29.83 in NNE 2.0 mph 8.0 mph 95% 0.16 in
13:24 40.6 °F 39.3 °F 29.83 in NNW 1.0 mph 5.0 mph 95% 0.15 in
13:29 40.3 °F 38.7 °F 29.82 in North 3.0 mph 5.0 mph 94% 0.12 in
13:34 40.2 °F 38.6 °F 29.83 in North 2.0 mph 5.0 mph 94% 0.09 in
13:39 40.2 °F 38.6 °F 29.83 in North 1.0 mph 4.0 mph 94% 0.08 in
13:44 40.3 °F 39.0 °F 29.81 in SSE 1.0 mph 5.0 mph 95% 0.06 in
13:49 40.4 °F 39.1 °F 29.82 in ESE 2.0 mph 5.0 mph 95% 0.05 in
13:54 40.4 °F 39.1 °F 29.83 in ENE 1.0 mph 2.0 mph 95% 0.05 in
13:59 40.6 °F 39.3 °F 29.82 in SSE 1.0 mph 3.0 mph 95% 0.05 in
14:04 40.7 °F 39.1 °F 29.83 in SE 2.0 mph 3.0 mph 94% 0.05 in
14:09 40.8 °F 39.2 °F 29.84 in South 2.0 mph 3.0 mph 94% 0.05 in
14:14 40.9 °F 39.3 °F 29.83 in SSE 5.0 mph 7.0 mph 94% 0.05 in
14:19 41.1 °F 39.5 °F 29.85 in SE 2.0 mph 7.0 mph 94% 0.05 in
14:24 41.3 °F 39.7 °F 29.84 in SSW 2.0 mph 7.0 mph 94% 0.04 in
14:29 41.3 °F 39.7 °F 29.83 in SW 1.0 mph 4.0 mph 94% 0.04 in
14:34 41.6 °F 40.0 °F 29.84 in SSW 2.0 mph 4.0 mph 94% 0.04 in
14:39 41.9 °F 40.3 °F 29.84 in SW 1.0 mph 3.0 mph 94% 0.03 in
14:44 41.9 °F 40.3 °F 29.84 in Calm   2.0 mph 94% 0.02 in
14:49 41.9 °F 40.3 °F 29.85 in Calm   2.0 mph 94% 0.01 in
14:54 41.9 °F 40.3 °F 29.85 in Calm   3.0 mph 94% 0.00 in
14:59 42.1 °F 40.5 °F 29.85 in SW 1.0 mph 3.0 mph 94% 0.00 in
15:04 42.1 °F 40.5 °F 29.85 in SSW 3.0 mph 4.0 mph 94% 0.00 in
15:09 42.3 °F 40.7 °F 29.86 in SSE 2.0 mph 3.0 mph 94% 0.00 in
15:14 42.5 °F 40.9 °F 29.85 in Calm   4.0 mph 94% 0.00 in
15:19 42.6 °F 41.0 °F 29.87 in WSW 2.0 mph 5.0 mph 94% 0.00 in
15:24 42.7 °F 41.1 °F 29.87 in SW 3.0 mph 5.0 mph 94% 0.00 in
15:29 42.5 °F 40.9 °F 29.86 in SW 4.0 mph 6.0 mph 94% 0.00 in
15:34 42.3 °F 40.4 °F 29.89 in West 3.0 mph 6.0 mph 93% 0.00 in
15:39 41.8 °F 39.9 °F 29.89 in WSW 8.0 mph 8.0 mph 93% 0.00 in
15:44 41.3 °F 39.4 °F 29.89 in WSW 4.0 mph 8.0 mph 93% 0.00 in
15:49 41.2 °F 39.6 °F 29.89 in WSW 4.0 mph 8.0 mph 94% 0.00 in
15:54 40.9 °F 39.0 °F 29.88 in WSW 4.0 mph 8.0 mph 93% 0.00 in
15:59 40.3 °F 38.4 °F 29.89 in WSW 5.0 mph 10.0 mph 93% 0.00 in
16:04 40.0 °F 38.1 °F 29.91 in WSW 6.0 mph 10.0 mph 93% 0.00 in
16:09 39.9 °F 38.0 °F 29.91 in WSW 5.0 mph 9.0 mph 93% 0.00 in
16:14 39.8 °F 38.2 °F 29.91 in WSW 4.0 mph 8.0 mph 94% 0.00 in
16:24 39.5 °F 37.9 °F 29.92 in West 6.0 mph 10.0 mph 94% 0.00 in
16:29 39.3 °F 37.7 °F 29.92 in WSW 4.0 mph 9.0 mph 94% 0.00 in
16:34 39.2 °F 37.6 °F 29.93 in SW 7.0 mph 12.0 mph 94% 0.00 in
16:39 39.0 °F 37.4 °F 29.93 in West 5.0 mph 9.0 mph 94% 0.00 in
16:44 38.8 °F 37.2 °F 29.94 in SW 8.0 mph 10.0 mph 94% 0.00 in
16:49 38.7 °F 37.1 °F 29.94 in WSW 5.0 mph 10.0 mph 94% 0.00 in
16:54 38.6 °F 37.0 °F 29.95 in WSW 5.0 mph 10.0 mph 94% 0.00 in
16:59 38.6 °F 37.0 °F 29.96 in WSW 5.0 mph 10.0 mph 94% 0.00 in
17:04 38.6 °F 37.0 °F 29.97 in WSW 5.0 mph 9.0 mph 94% 0.00 in
17:09 38.5 °F 36.9 °F 29.96 in WSW 5.0 mph 10.0 mph 94% 0.00 in
17:14 38.4 °F 36.8 °F 29.96 in WSW 5.0 mph 10.0 mph 94% 0.00 in
17:19 38.4 °F 36.8 °F 29.98 in WSW 5.0 mph 9.0 mph 94% 0.00 in
17:24 38.3 °F 36.7 °F 29.98 in SW 4.0 mph 8.0 mph 94% 0.00 in
17:29 38.2 °F 36.6 °F 29.99 in West 4.0 mph 9.0 mph 94% 0.00 in
17:34 38.2 °F 36.9 °F 29.98 in SW 4.0 mph 8.0 mph 95% 0.00 in
17:39 38.1 °F 36.8 °F 29.99 in West 4.0 mph 11.0 mph 95% 0.00 in
17:44 38.2 °F 36.9 °F 30.00 in SW 6.0 mph 10.0 mph 95% 0.00 in
17:49 38.3 °F 36.7 °F 30.00 in WSW 3.0 mph 8.0 mph 94% 0.00 in
17:54 38.4 °F 36.8 °F 30.01 in WSW 5.0 mph 9.0 mph 94% 0.00 in
17:59 38.5 °F 36.9 °F 30.01 in WSW 5.0 mph 9.0 mph 94% 0.00 in
18:04 38.5 °F 36.9 °F 30.01 in WSW 5.0 mph 10.0 mph 94% 0.00 in
18:09 38.6 °F 37.0 °F 30.01 in WSW 5.0 mph 10.0 mph 94% 0.00 in
18:14 38.5 °F 36.9 °F 30.02 in WSW 5.0 mph 11.0 mph 94% 0.00 in
18:19 38.5 °F 36.7 °F 30.03 in WSW 5.0 mph 12.0 mph 93% 0.00 in
18:24 38.4 °F 36.6 °F 30.04 in West 4.0 mph 8.0 mph 93% 0.00 in
18:29 38.3 °F 36.5 °F 30.04 in WSW 5.0 mph 10.0 mph 93% 0.00 in
18:34 38.0 °F 36.2 °F 30.04 in WSW 6.0 mph 9.0 mph 93% 0.00 in
18:39 37.9 °F 35.8 °F 30.05 in West 7.0 mph 11.0 mph 92% 0.00 in
18:44 37.7 °F 35.9 °F 30.05 in SSW 4.0 mph 11.0 mph 93% 0.00 in
18:49 37.6 °F 35.5 °F 30.06 in West 7.0 mph 13.0 mph 92% 0.00 in
18:54 37.5 °F 35.4 °F 30.06 in West 5.0 mph 12.0 mph 92% 0.00 in
18:59 37.3 °F 35.2 °F 30.07 in WSW 7.0 mph 13.0 mph 92% 0.00 in
19:04 37.1 °F 35.0 °F 30.07 in West 7.0 mph 11.0 mph 92% 0.00 in
19:09 37.1 °F 35.0 °F 30.07 in WSW 6.0 mph 14.0 mph 92% 0.00 in
19:14 37.1 °F 35.0 °F 30.08 in WSW 6.0 mph 14.0 mph 92% 0.00 in
19:19 36.9 °F 34.8 °F 30.09 in WSW 6.0 mph 13.0 mph 92% 0.00 in
19:24 36.8 °F 34.7 °F 30.09 in WSW 6.0 mph 13.0 mph 92% 0.00 in
19:29 36.7 °F 34.6 °F 30.09 in West 9.0 mph 12.0 mph 92% 0.00 in
19:34 36.5 °F 34.4 °F 30.10 in SW 4.0 mph 11.0 mph 92% 0.00 in
19:39 36.5 °F 34.4 °F 30.10 in WSW 7.0 mph 12.0 mph 92% 0.00 in
19:44 36.5 °F 34.4 °F 30.10 in West 6.0 mph 8.0 mph 92% 0.00 in
19:49 36.5 °F 34.4 °F 30.11 in WSW 5.0 mph 9.0 mph 92% 0.00 in
19:54 36.6 °F 34.5 °F 30.11 in WSW 5.0 mph 10.0 mph 92% 0.00 in
19:59 36.7 °F 34.6 °F 30.12 in West 7.0 mph 10.0 mph 92% 0.00 in
20:04 36.7 °F 34.3 °F 30.13 in WSW 5.0 mph 10.0 mph 91% 0.00 in
20:09 36.7 °F 34.3 °F 30.13 in WSW 5.0 mph 10.0 mph 91% 0.00 in
20:14 36.7 °F 34.3 °F 30.13 in WSW 5.0 mph 10.0 mph 91% 0.00 in
20:19 36.7 °F 34.3 °F 30.14 in WSW 5.0 mph 10.0 mph 91% 0.00 in
20:24 36.7 °F 34.0 °F 30.15 in West 5.0 mph 10.0 mph 90% 0.00 in
20:29 36.7 °F 34.0 °F 30.15 in West 5.0 mph 10.0 mph 90% 0.00 in
20:34 36.6 °F 33.7 °F 30.15 in West 5.0 mph 12.0 mph 89% 0.00 in
20:39 36.6 °F 33.7 °F 30.16 in WSW 5.0 mph 13.0 mph 89% 0.00 in
20:44 36.4 °F 33.5 °F 30.16 in WSW 9.0 mph 12.0 mph 89% 0.00 in
20:49 36.3 °F 33.1 °F 30.16 in West 7.0 mph 13.0 mph 88% 0.00 in
20:54 36.1 °F 32.9 °F 30.16 in WNW 8.0 mph 12.0 mph 88% 0.00 in
20:59 36.0 °F 32.5 °F 30.17 in West 13.0 mph 13.0 mph 87% 0.00 in
21:04 35.9 °F 32.4 °F 30.17 in WNW 4.0 mph 18.0 mph 87% 0.00 in
21:09 35.8 °F 32.6 °F 30.18 in West 7.0 mph 18.0 mph 88% 0.00 in
21:14 35.7 °F 32.5 °F 30.18 in WSW 12.0 mph 12.0 mph 88% 0.00 in
21:19 35.6 °F 32.1 °F 30.19 in West 6.0 mph 12.0 mph 87% 0.00 in
21:24 35.5 °F 32.0 °F 30.19 in West 6.0 mph 12.0 mph 87% 0.00 in
21:29 35.3 °F 31.8 °F 30.19 in West 6.0 mph 14.0 mph 87% 0.00 in
21:34 35.1 °F 31.6 °F 30.20 in West 6.0 mph 14.0 mph 87% 0.00 in
21:39 35.0 °F 31.8 °F 30.20 in WSW 4.0 mph 11.0 mph 88% 0.00 in
21:44 34.8 °F 31.6 °F 30.20 in West 6.0 mph 13.0 mph 88% 0.00 in
21:49 34.7 °F 31.5 °F 30.21 in West 6.0 mph 13.0 mph 88% 0.00 in
21:54 34.7 °F 31.5 °F 30.21 in WSW 4.0 mph 11.0 mph 88% 0.00 in
21:59 34.6 °F 31.4 °F 30.22 in WSW 6.0 mph 13.0 mph 88% 0.00 in
22:04 34.6 °F 31.4 °F 30.22 in West 5.0 mph 12.0 mph 88% 0.00 in
22:09 34.5 °F 31.0 °F 30.21 in SW 5.0 mph 12.0 mph 87% 0.00 in
22:14 34.4 °F 30.6 °F 30.22 in West 7.0 mph 15.0 mph 86% 0.00 in
22:19 34.2 °F 30.2 °F 30.22 in West 7.0 mph 15.0 mph 85% 0.00 in
22:24 34.1 °F 30.1 °F 30.22 in West 7.0 mph 15.0 mph 85% 0.00 in
22:29 34.0 °F 30.0 °F 30.22 in West 7.0 mph 16.0 mph 85% 0.00 in
22:34 33.9 °F 29.9 °F 30.22 in West 7.0 mph 16.0 mph 85% 0.00 in
22:39 33.8 °F 29.8 °F 30.22 in West 6.0 mph 15.0 mph 85% 0.00 in
22:44 33.8 °F 29.8 °F 30.22 in West 12.0 mph 12.0 mph 85% 0.00 in
22:49 33.7 °F 29.7 °F 30.23 in SW 5.0 mph 14.0 mph 85% 0.00 in
22:54 33.7 °F 29.7 °F 30.24 in West 4.0 mph 13.0 mph 85% 0.00 in
22:59 33.6 °F 29.6 °F 30.24 in West 6.0 mph 10.0 mph 85% 0.00 in
23:04 33.6 °F 29.6 °F 30.24 in West 11.0 mph 13.0 mph 85% 0.00 in
23:09 33.5 °F 29.8 °F 30.24 in West 10.0 mph 16.0 mph 86% 0.00 in
23:14 33.5 °F 29.8 °F 30.25 in West 9.0 mph 14.0 mph 86% 0.00 in
23:19 33.4 °F 29.7 °F 30.25 in WSW 8.0 mph 15.0 mph 86% 0.00 in
23:24 33.4 °F 29.7 °F 30.25 in WSW 8.0 mph 15.0 mph 86% 0.00 in
23:29 33.3 °F 29.6 °F 30.25 in WSW 8.0 mph 14.0 mph 86% 0.00 in
23:34 33.3 °F 29.6 °F 30.26 in WSW 7.0 mph 14.0 mph 86% 0.00 in
23:39 33.3 °F 29.6 °F 30.26 in WSW 6.0 mph 12.0 mph 86% 0.00 in
23:44 33.2 °F 29.5 °F 30.26 in West 8.0 mph 16.0 mph 86% 0.00 in
23:49 33.2 °F 29.5 °F 30.26 in West 6.0 mph 13.0 mph 86% 0.00 in
23:54 33.2 °F 29.5 °F 30.26 in WSW 6.0 mph 13.0 mph 86% 0.00 in
23:59 33.1 °F 29.1 °F 30.26 in West 7.0 mph 15.0 mph 85% 0.00 in
Buffalo, New York, USA
Compliments of Weather Underground - 2.5 mb